Terminal Aerodrome Forecast
Issued by NWS

Home | Current Version | Previous Version | Text Only | Print | Product List | Glossary On
Versions: 1 2 3 4 5 6 7 8 9 10 11 12 13 14 15 16 17 18
000
FTUS41 KBTV 050520
TAFMSS
TAF
KMSS 050520Z 0506/0606 23005KT P6SM VCSH SCT050 BKN070
     FM050700 00000KT 4SM BR SCT002
      TEMPO 0507/0510 2SM BR BKN002
     FM051300 26009KT P6SM BKN040
     FM051500 26009G15KT P6SM VCSH BKN040
     FM051700 26008G18KT 6SM SHRA BKN050
     FM060000 VRB04KT P6SM BKN050=

USA.gov is the U.S. government's official web portal to all federal, state and local government web resources and services.